LHSM/SOB METAR and TAF weather

Enter ICAO airport designator
Station Type Date Time Source
LHSM METAR 2020/09/22 00:45 UTC NOAA

LHSM 220045Z AUTO VRB02KT 7000 NCD 11/11 Q1017


Station Type Date Time Source
LHSM Decoded METAR 2020/09/22 00:45 UTC NOAA

Station name not available
Sep 21, 2020 - 08:45 PM EDT / 2020.09.22 0045 UTC
Wind: Variable at 2 MPH (2 KT):0
Visibility: 4 mile(s):0
Temperature: 51 F (11 C)
Dew Point: 51 F (11 C)
Relative Humidity: 100%
Pressure (altimeter): 30.03 in. Hg (1017 hPa)
ob: LHSM 220045Z AUTO VRB02KT 7000 NCD 11/11 Q1017
cycle: 1

Station Type Date Time Source
LHSM TAF UTC NOAA

Error!

Example: see airport list